sensor_id;sensor_type;location;lat;lon;timestamp;P1;durP1;ratioP1;P2;durP2;ratioP2
33170;SDS011;19535;50.672;4.206;2024-01-11T00:00:46;8.75;;;7.95;;
33170;SDS011;19535;50.672;4.206;2024-01-11T00:03:14;8.38;;;7.68;;
33170;SDS011;19535;50.672;4.206;2024-01-11T00:05:41;8.50;;;7.80;;
33170;SDS011;19535;50.672;4.206;2024-01-11T00:08:10;9.07;;;8.27;;
33170;SDS011;19535;50.672;4.206;2024-01-11T00:10:37;8.75;;;8.02;;
33170;SDS011;19535;50.672;4.206;2024-01-11T00:13:04;7.95;;;7.25;;
33170;SDS011;19535;50.672;4.206;2024-01-11T00:15:31;8.85;;;8.05;;
33170;SDS011;19535;50.672;4.206;2024-01-11T00:17:58;7.57;;;6.97;;
33170;SDS011;19535;50.672;4.206;2024-01-11T00:20:25;8.07;;;7.38;;
33170;SDS011;19535;50.672;4.206;2024-01-11T00:22:52;8.85;;;8.05;;
33170;SDS011;19535;50.672;4.206;2024-01-11T00:25:19;8.30;;;7.50;;
33170;SDS011;19535;50.672;4.206;2024-01-11T00:27:45;9.10;;;8.30;;
33170;SDS011;19535;50.672;4.206;2024-01-11T00:30:12;8.70;;;7.90;;
33170;SDS011;19535;50.672;4.206;2024-01-11T00:32:39;8.93;;;8.15;;
33170;SDS011;19535;50.672;4.206;2024-01-11T00:35:06;8.68;;;7.93;;
33170;SDS011;19535;50.672;4.206;2024-01-11T00:37:34;8.70;;;7.90;;
33170;SDS011;19535;50.672;4.206;2024-01-11T00:40:00;8.38;;;7.68;;
33170;SDS011;19535;50.672;4.206;2024-01-11T00:42:27;8.95;;;8.07;;
33170;SDS011;19535;50.672;4.206;2024-01-11T00:44:54;8.77;;;8.00;;
33170;SDS011;19535;50.672;4.206;2024-01-11T00:47:21;8.50;;;7.80;;
33170;SDS011;19535;50.672;4.206;2024-01-11T00:49:48;8.68;;;7.85;;
33170;SDS011;19535;50.672;4.206;2024-01-11T00:52:15;8.40;;;7.60;;
33170;SDS011;19535;50.672;4.206;2024-01-11T00:54:42;8.65;;;7.85;;
33170;SDS011;19535;50.672;4.206;2024-01-11T00:57:09;8.50;;;7.70;;
33170;SDS011;19535;50.672;4.206;2024-01-11T00:59:36;9.00;;;8.20;;
33170;SDS011;19535;50.672;4.206;2024-01-11T01:02:03;7.93;;;7.18;;
33170;SDS011;19535;50.672;4.206;2024-01-11T01:04:30;7.93;;;7.22;;
33170;SDS011;19535;50.672;4.206;2024-01-11T01:06:56;8.02;;;7.32;;
33170;SDS011;19535;50.672;4.206;2024-01-11T01:09:23;7.80;;;7.20;;
33170;SDS011;19535;50.672;4.206;2024-01-11T01:11:50;8.45;;;7.68;;
33170;SDS011;19535;50.672;4.206;2024-01-11T01:14:17;7.93;;;7.32;;
33170;SDS011;19535;50.672;4.206;2024-01-11T01:16:44;8.07;;;7.38;;
33170;SDS011;19535;50.672;4.206;2024-01-11T01:19:11;8.75;;;8.05;;
33170;SDS011;19535;50.672;4.206;2024-01-11T01:21:38;7.82;;;7.13;;
33170;SDS011;19535;50.672;4.206;2024-01-11T01:24:05;7.85;;;7.15;;
33170;SDS011;19535;50.672;4.206;2024-01-11T01:26:32;7.90;;;7.20;;
33170;SDS011;19535;50.672;4.206;2024-01-11T01:29:00;8.65;;;7.85;;
33170;SDS011;19535;50.672;4.206;2024-01-11T01:31:27;7.90;;;7.22;;
33170;SDS011;19535;50.672;4.206;2024-01-11T01:33:54;8.15;;;7.45;;
33170;SDS011;19535;50.672;4.206;2024-01-11T01:36:22;8.30;;;7.50;;
33170;SDS011;19535;50.672;4.206;2024-01-11T01:38:48;8.10;;;7.40;;
33170;SDS011;19535;50.672;4.206;2024-01-11T01:41:15;7.82;;;7.13;;
33170;SDS011;19535;50.672;4.206;2024-01-11T01:43:42;8.27;;;7.57;;
33170;SDS011;19535;50.672;4.206;2024-01-11T01:46:09;8.10;;;7.38;;
33170;SDS011;19535;50.672;4.206;2024-01-11T01:48:36;7.80;;;7.20;;
33170;SDS011;19535;50.672;4.206;2024-01-11T01:51:04;8.02;;;7.32;;
33170;SDS011;19535;50.672;4.206;2024-01-11T01:53:32;7.75;;;7.05;;
33170;SDS011;19535;50.672;4.206;2024-01-11T01:55:59;7.72;;;7.03;;
33170;SDS011;19535;50.672;4.206;2024-01-11T01:58:26;7.60;;;6.90;;
33170;SDS011;19535;50.672;4.206;2024-01-11T02:00:53;7.50;;;6.90;;
33170;SDS011;19535;50.672;4.206;2024-01-11T02:03:20;7.78;;;7.03;;
33170;SDS011;19535;50.672;4.206;2024-01-11T02:05:47;8.10;;;7.40;;
33170;SDS011;19535;50.672;4.206;2024-01-11T02:08:15;7.53;;;6.90;;
33170;SDS011;19535;50.672;4.206;2024-01-11T02:10:46;8.18;;;7.38;;
33170;SDS011;19535;50.672;4.206;2024-01-11T02:13:13;7.47;;;6.78;;
33170;SDS011;19535;50.672;4.206;2024-01-11T02:15:40;8.57;;;7.78;;
33170;SDS011;19535;50.672;4.206;2024-01-11T02:18:07;7.53;;;6.93;;
33170;SDS011;19535;50.672;4.206;2024-01-11T02:20:34;7.75;;;7.05;;
33170;SDS011;19535;50.672;4.206;2024-01-11T02:23:03;7.63;;;6.93;;
33170;SDS011;19535;50.672;4.206;2024-01-11T02:25:32;7.50;;;6.70;;
33170;SDS011;19535;50.672;4.206;2024-01-11T02:27:59;8.38;;;7.63;;
33170;SDS011;19535;50.672;4.206;2024-01-11T02:30:26;7.50;;;6.80;;
33170;SDS011;19535;50.672;4.206;2024-01-11T02:32:54;7.68;;;6.95;;
33170;SDS011;19535;50.672;4.206;2024-01-11T02:35:22;7.85;;;7.05;;
33170;SDS011;19535;50.672;4.206;2024-01-11T02:37:49;7.05;;;6.47;;
33170;SDS011;19535;50.672;4.206;2024-01-11T02:40:17;7.50;;;6.80;;
33170;SDS011;19535;50.672;4.206;2024-01-11T02:42:45;7.97;;;7.27;;
33170;SDS011;19535;50.672;4.206;2024-01-11T02:45:12;7.95;;;7.25;;
33170;SDS011;19535;50.672;4.206;2024-01-11T02:47:39;8.40;;;7.63;;
33170;SDS011;19535;50.672;4.206;2024-01-11T02:50:07;7.85;;;7.15;;
33170;SDS011;19535;50.672;4.206;2024-01-11T02:52:34;8.07;;;7.30;;
33170;SDS011;19535;50.672;4.206;2024-01-11T02:55:01;8.23;;;7.53;;
33170;SDS011;19535;50.672;4.206;2024-01-11T02:57:28;7.55;;;6.93;;
33170;SDS011;19535;50.672;4.206;2024-01-11T02:59:55;8.30;;;7.50;;
33170;SDS011;19535;50.672;4.206;2024-01-11T03:02:22;8.13;;;7.20;;
33170;SDS011;19535;50.672;4.206;2024-01-11T03:04:49;7.63;;;7.03;;
33170;SDS011;19535;50.672;4.206;2024-01-11T03:07:16;8.13;;;7.32;;
33170;SDS011;19535;50.672;4.206;2024-01-11T03:09:43;7.43;;;6.72;;
33170;SDS011;19535;50.672;4.206;2024-01-11T03:12:10;7.60;;;6.90;;
33170;SDS011;19535;50.672;4.206;2024-01-11T03:14:37;7.68;;;6.97;;
33170;SDS011;19535;50.672;4.206;2024-01-11T03:17:04;8.65;;;7.68;;
33170;SDS011;19535;50.672;4.206;2024-01-11T03:19:32;6.95;;;6.35;;
33170;SDS011;19535;50.672;4.206;2024-01-11T03:21:59;7.53;;;6.82;;
33170;SDS011;19535;50.672;4.206;2024-01-11T03:24:29;7.78;;;7.07;;
33170;SDS011;19535;50.672;4.206;2024-01-11T03:26:56;7.70;;;7.00;;
33170;SDS011;19535;50.672;4.206;2024-01-11T03:29:23;7.60;;;7.00;;
33170;SDS011;19535;50.672;4.206;2024-01-11T03:31:50;7.45;;;6.80;;
33170;SDS011;19535;50.672;4.206;2024-01-11T03:34:17;7.60;;;6.90;;
33170;SDS011;19535;50.672;4.206;2024-01-11T03:36:44;7.60;;;6.90;;
33170;SDS011;19535;50.672;4.206;2024-01-11T03:39:11;7.70;;;7.00;;
33170;SDS011;19535;50.672;4.206;2024-01-11T03:41:42;7.53;;;6.82;;
33170;SDS011;19535;50.672;4.206;2024-01-11T03:44:11;7.85;;;7.10;;
33170;SDS011;19535;50.672;4.206;2024-01-11T03:46:38;6.93;;;6.32;;
33170;SDS011;19535;50.672;4.206;2024-01-11T03:49:05;8.27;;;7.45;;
33170;SDS011;19535;50.672;4.206;2024-01-11T03:51:34;7.65;;;6.95;;
33170;SDS011;19535;50.672;4.206;2024-01-11T03:54:01;7.70;;;7.00;;
33170;SDS011;19535;50.672;4.206;2024-01-11T03:56:29;7.50;;;6.82;;
33170;SDS011;19535;50.672;4.206;2024-01-11T03:58:56;7.82;;;7.05;;
33170;SDS011;19535;50.672;4.206;2024-01-11T04:01:23;7.47;;;6.78;;
33170;SDS011;19535;50.672;4.206;2024-01-11T04:03:50;7.57;;;6.93;;
33170;SDS011;19535;50.672;4.206;2024-01-11T04:06:23;8.18;;;6.90;;
33170;SDS011;19535;50.672;4.206;2024-01-11T04:08:51;7.32;;;6.70;;
33170;SDS011;19535;50.672;4.206;2024-01-11T04:11:18;7.40;;;6.78;;
33170;SDS011;19535;50.672;4.206;2024-01-11T04:13:45;7.95;;;7.15;;
33170;SDS011;19535;50.672;4.206;2024-01-11T04:16:12;7.78;;;7.05;;
33170;SDS011;19535;50.672;4.206;2024-01-11T04:18:39;7.63;;;6.82;;
33170;SDS011;19535;50.672;4.206;2024-01-11T04:21:06;7.63;;;6.97;;
33170;SDS011;19535;50.672;4.206;2024-01-11T04:23:32;7.90;;;7.10;;
33170;SDS011;19535;50.672;4.206;2024-01-11T04:25:59;7.25;;;6.63;;
33170;SDS011;19535;50.672;4.206;2024-01-11T04:28:26;8.10;;;7.22;;
33170;SDS011;19535;50.672;4.206;2024-01-11T04:30:54;7.45;;;6.75;;
33170;SDS011;19535;50.672;4.206;2024-01-11T04:33:21;7.50;;;6.80;;
33170;SDS011;19535;50.672;4.206;2024-01-11T04:35:48;7.63;;;6.95;;
33170;SDS011;19535;50.672;4.206;2024-01-11T04:38:15;7.45;;;6.82;;
33170;SDS011;19535;50.672;4.206;2024-01-11T04:40:42;7.40;;;6.70;;
33170;SDS011;19535;50.672;4.206;2024-01-11T04:43:09;7.53;;;6.75;;
33170;SDS011;19535;50.672;4.206;2024-01-11T04:45:36;7.22;;;6.63;;
33170;SDS011;19535;50.672;4.206;2024-01-11T04:48:03;7.43;;;6.70;;
33170;SDS011;19535;50.672;4.206;2024-01-11T04:50:31;7.60;;;6.90;;
33170;SDS011;19535;50.672;4.206;2024-01-11T04:52:58;7.03;;;6.43;;
33170;SDS011;19535;50.672;4.206;2024-01-11T04:55:25;6.88;;;5.90;;
33170;SDS011;19535;50.672;4.206;2024-01-11T04:57:52;6.47;;;5.97;;
33170;SDS011;19535;50.672;4.206;2024-01-11T05:00:19;7.20;;;6.53;;
33170;SDS011;19535;50.672;4.206;2024-01-11T05:02:46;7.13;;;6.40;;
33170;SDS011;19535;50.672;4.206;2024-01-11T05:05:13;7.75;;;7.00;;
33170;SDS011;19535;50.672;4.206;2024-01-11T05:07:40;7.00;;;6.40;;
33170;SDS011;19535;50.672;4.206;2024-01-11T05:10:07;7.50;;;6.80;;
33170;SDS011;19535;50.672;4.206;2024-01-11T05:12:34;7.22;;;6.60;;
33170;SDS011;19535;50.672;4.206;2024-01-11T05:15:03;7.13;;;6.53;;
33170;SDS011;19535;50.672;4.206;2024-01-11T05:17:32;7.15;;;6.47;;
33170;SDS011;19535;50.672;4.206;2024-01-11T05:19:59;7.53;;;6.80;;
33170;SDS011;19535;50.672;4.206;2024-01-11T05:22:26;7.53;;;6.72;;
33170;SDS011;19535;50.672;4.206;2024-01-11T05:24:53;7.90;;;7.07;;
33170;SDS011;19535;50.672;4.206;2024-01-11T05:27:20;7.75;;;6.97;;
33170;SDS011;19535;50.672;4.206;2024-01-11T05:29:47;7.47;;;6.78;;
33170;SDS011;19535;50.672;4.206;2024-01-11T05:32:14;7.55;;;6.85;;
33170;SDS011;19535;50.672;4.206;2024-01-11T05:34:41;7.85;;;7.13;;
33170;SDS011;19535;50.672;4.206;2024-01-11T05:37:09;7.32;;;6.72;;
33170;SDS011;19535;50.672;4.206;2024-01-11T05:39:35;7.38;;;6.68;;
33170;SDS011;19535;50.672;4.206;2024-01-11T05:42:02;7.43;;;6.72;;
33170;SDS011;19535;50.672;4.206;2024-01-11T05:44:30;8.55;;;6.82;;
33170;SDS011;19535;50.672;4.206;2024-01-11T05:46:56;7.70;;;6.97;;
33170;SDS011;19535;50.672;4.206;2024-01-11T05:49:23;7.60;;;6.90;;
33170;SDS011;19535;50.672;4.206;2024-01-11T05:51:50;7.05;;;6.45;;
33170;SDS011;19535;50.672;4.206;2024-01-11T05:54:17;7.47;;;6.85;;
33170;SDS011;19535;50.672;4.206;2024-01-11T05:56:44;7.38;;;6.70;;
33170;SDS011;19535;50.672;4.206;2024-01-11T05:59:11;7.93;;;7.13;;
33170;SDS011;19535;50.672;4.206;2024-01-11T06:01:41;7.75;;;7.05;;
33170;SDS011;19535;50.672;4.206;2024-01-11T06:04:09;7.43;;;6.82;;
33170;SDS011;19535;50.672;4.206;2024-01-11T06:06:36;8.32;;;7.53;;
33170;SDS011;19535;50.672;4.206;2024-01-11T06:09:03;7.85;;;7.15;;
33170;SDS011;19535;50.672;4.206;2024-01-11T06:11:33;8.07;;;7.28;;
33170;SDS011;19535;50.672;4.206;2024-01-11T06:14:00;7.30;;;6.55;;
33170;SDS011;19535;50.672;4.206;2024-01-11T06:16:29;7.30;;;6.65;;
33170;SDS011;19535;50.672;4.206;2024-01-11T06:18:56;7.70;;;6.78;;
33170;SDS011;19535;50.672;4.206;2024-01-11T06:21:23;7.05;;;6.40;;
33170;SDS011;19535;50.672;4.206;2024-01-11T06:23:50;7.28;;;6.57;;
33170;SDS011;19535;50.672;4.206;2024-01-11T06:26:18;7.38;;;6.68;;
33170;SDS011;19535;50.672;4.206;2024-01-11T06:28:45;7.65;;;6.85;;
33170;SDS011;19535;50.672;4.206;2024-01-11T06:31:12;7.47;;;6.78;;
33170;SDS011;19535;50.672;4.206;2024-01-11T06:33:39;7.22;;;6.53;;
33170;SDS011;19535;50.672;4.206;2024-01-11T06:36:06;7.88;;;7.10;;
33170;SDS011;19535;50.672;4.206;2024-01-11T06:41:03;7.07;;;6.45;;
33170;SDS011;19535;50.672;4.206;2024-01-11T06:43:30;7.78;;;7.05;;
33170;SDS011;19535;50.672;4.206;2024-01-11T06:45:57;7.18;;;6.57;;
33170;SDS011;19535;50.672;4.206;2024-01-11T06:48:29;7.18;;;6.53;;
33170;SDS011;19535;50.672;4.206;2024-01-11T06:50:57;7.35;;;6.65;;
33170;SDS011;19535;50.672;4.206;2024-01-11T06:53:27;7.15;;;6.50;;
33170;SDS011;19535;50.672;4.206;2024-01-11T06:55:54;8.15;;;7.32;;
33170;SDS011;19535;50.672;4.206;2024-01-11T06:58:21;8.20;;;7.50;;
33170;SDS011;19535;50.672;4.206;2024-01-11T07:00:48;8.85;;;7.93;;
33170;SDS011;19535;50.672;4.206;2024-01-11T07:03:16;8.40;;;7.57;;
33170;SDS011;19535;50.672;4.206;2024-01-11T07:05:43;8.35;;;7.28;;
33170;SDS011;19535;50.672;4.206;2024-01-11T07:08:11;9.00;;;8.10;;
33170;SDS011;19535;50.672;4.206;2024-01-11T07:10:38;8.13;;;7.40;;
33170;SDS011;19535;50.672;4.206;2024-01-11T07:13:05;8.77;;;7.93;;
33170;SDS011;19535;50.672;4.206;2024-01-11T07:15:33;9.35;;;8.40;;
33170;SDS011;19535;50.672;4.206;2024-01-11T07:18:00;8.85;;;7.57;;
33170;SDS011;19535;50.672;4.206;2024-01-11T07:20:27;8.68;;;7.88;;
33170;SDS011;19535;50.672;4.206;2024-01-11T07:22:54;8.90;;;7.97;;
33170;SDS011;19535;50.672;4.206;2024-01-11T07:25:21;8.23;;;7.43;;
33170;SDS011;19535;50.672;4.206;2024-01-11T07:27:48;7.63;;;6.93;;
33170;SDS011;19535;50.672;4.206;2024-01-11T07:30:15;8.27;;;7.57;;
33170;SDS011;19535;50.672;4.206;2024-01-11T07:32:42;9.25;;;7.35;;
33170;SDS011;19535;50.672;4.206;2024-01-11T07:35:09;8.45;;;7.65;;
33170;SDS011;19535;50.672;4.206;2024-01-11T07:37:41;8.40;;;7.60;;
33170;SDS011;19535;50.672;4.206;2024-01-11T07:40:08;8.43;;;7.63;;
33170;SDS011;19535;50.672;4.206;2024-01-11T07:42:40;8.18;;;7.38;;
33170;SDS011;19535;50.672;4.206;2024-01-11T07:45:08;8.52;;;7.68;;
33170;SDS011;19535;50.672;4.206;2024-01-11T07:47:43;7.72;;;6.90;;
33170;SDS011;19535;50.672;4.206;2024-01-11T07:50:10;8.95;;;8.05;;
33170;SDS011;19535;50.672;4.206;2024-01-11T07:52:37;7.93;;;7.22;;
33170;SDS011;19535;50.672;4.206;2024-01-11T07:55:05;8.20;;;7.40;;
33170;SDS011;19535;50.672;4.206;2024-01-11T07:57:34;7.70;;;7.00;;
33170;SDS011;19535;50.672;4.206;2024-01-11T08:00:01;8.43;;;7.63;;
33170;SDS011;19535;50.672;4.206;2024-01-11T08:02:29;8.18;;;7.40;;
33170;SDS011;19535;50.672;4.206;2024-01-11T08:04:56;8.07;;;7.28;;
33170;SDS011;19535;50.672;4.206;2024-01-11T08:07:29;8.57;;;7.38;;
33170;SDS011;19535;50.672;4.206;2024-01-11T08:09:56;7.70;;;6.90;;
33170;SDS011;19535;50.672;4.206;2024-01-11T08:12:23;7.90;;;7.20;;
33170;SDS011;19535;50.672;4.206;2024-01-11T08:14:51;8.73;;;7.90;;
33170;SDS011;19535;50.672;4.206;2024-01-11T08:17:18;9.00;;;7.75;;
33170;SDS011;19535;50.672;4.206;2024-01-11T08:19:45;8.32;;;7.35;;
33170;SDS011;19535;50.672;4.206;2024-01-11T08:22:12;7.13;;;6.53;;
33170;SDS011;19535;50.672;4.206;2024-01-11T08:24:40;8.38;;;7.63;;
33170;SDS011;19535;50.672;4.206;2024-01-11T08:27:07;8.10;;;7.30;;
33170;SDS011;19535;50.672;4.206;2024-01-11T08:29:34;8.15;;;7.45;;
33170;SDS011;19535;50.672;4.206;2024-01-11T08:32:01;8.15;;;7.35;;
33170;SDS011;19535;50.672;4.206;2024-01-11T08:34:49;8.48;;;7.47;;
33170;SDS011;19535;50.672;4.206;2024-01-11T08:37:16;8.27;;;7.47;;
33170;SDS011;19535;50.672;4.206;2024-01-11T08:39:43;7.28;;;6.57;;
33170;SDS011;19535;50.672;4.206;2024-01-11T08:42:12;7.80;;;7.00;;
33170;SDS011;19535;50.672;4.206;2024-01-11T08:44:42;8.93;;;7.93;;
33170;SDS011;19535;50.672;4.206;2024-01-11T08:47:09;7.75;;;7.05;;
33170;SDS011;19535;50.672;4.206;2024-01-11T08:49:37;8.18;;;7.47;;
33170;SDS011;19535;50.672;4.206;2024-01-11T08:52:05;8.13;;;7.43;;
33170;SDS011;19535;50.672;4.206;2024-01-11T08:54:33;8.02;;;7.28;;
33170;SDS011;19535;50.672;4.206;2024-01-11T08:57:01;8.20;;;7.40;;
33170;SDS011;19535;50.672;4.206;2024-01-11T08:59:27;8.77;;;7.97;;
33170;SDS011;19535;50.672;4.206;2024-01-11T09:01:54;8.65;;;7.88;;
33170;SDS011;19535;50.672;4.206;2024-01-11T09:04:39;8.63;;;7.82;;
33170;SDS011;19535;50.672;4.206;2024-01-11T09:07:06;8.13;;;7.40;;
33170;SDS011;19535;50.672;4.206;2024-01-11T09:09:33;8.27;;;7.47;;
33170;SDS011;19535;50.672;4.206;2024-01-11T09:12:09;8.30;;;7.50;;
33170;SDS011;19535;50.672;4.206;2024-01-11T09:14:36;9.05;;;7.60;;
33170;SDS011;19535;50.672;4.206;2024-01-11T09:17:03;8.00;;;7.18;;
33170;SDS011;19535;50.672;4.206;2024-01-11T09:19:32;8.63;;;6.90;;
33170;SDS011;19535;50.672;4.206;2024-01-11T09:22:04;8.68;;;7.65;;
33170;SDS011;19535;50.672;4.206;2024-01-11T09:24:31;8.73;;;7.82;;
33170;SDS011;19535;50.672;4.206;2024-01-11T09:27:03;8.70;;;7.88;;
33170;SDS011;19535;50.672;4.206;2024-01-11T09:29:30;9.20;;;8.25;;
33170;SDS011;19535;50.672;4.206;2024-01-11T09:31:58;9.38;;;8.45;;
33170;SDS011;19535;50.672;4.206;2024-01-11T09:34:26;9.27;;;8.45;;
33170;SDS011;19535;50.672;4.206;2024-01-11T09:36:54;10.63;;;8.48;;
33170;SDS011;19535;50.672;4.206;2024-01-11T09:39:25;9.00;;;8.00;;
33170;SDS011;19535;50.672;4.206;2024-01-11T09:41:59;9.52;;;8.57;;
33170;SDS011;19535;50.672;4.206;2024-01-11T09:44:44;9.35;;;8.40;;
33170;SDS011;19535;50.672;4.206;2024-01-11T09:47:11;10.57;;;8.20;;
33170;SDS011;19535;50.672;4.206;2024-01-11T09:49:42;8.98;;;8.10;;
33170;SDS011;19535;50.672;4.206;2024-01-11T09:52:11;8.65;;;7.75;;
33170;SDS011;19535;50.672;4.206;2024-01-11T09:54:41;9.40;;;7.55;;
33170;SDS011;19535;50.672;4.206;2024-01-11T09:57:09;8.73;;;7.90;;
33170;SDS011;19535;50.672;4.206;2024-01-11T09:59:36;8.82;;;7.93;;
33170;SDS011;19535;50.672;4.206;2024-01-11T10:02:03;8.57;;;7.68;;
33170;SDS011;19535;50.672;4.206;2024-01-11T10:04:34;8.82;;;8.02;;
33170;SDS011;19535;50.672;4.206;2024-01-11T10:07:04;7.97;;;7.17;;
33170;SDS011;19535;50.672;4.206;2024-01-11T10:09:35;8.55;;;7.75;;
33170;SDS011;19535;50.672;4.206;2024-01-11T10:12:03;8.20;;;7.40;;
33170;SDS011;19535;50.672;4.206;2024-01-11T10:14:30;8.73;;;7.93;;
33170;SDS011;19535;50.672;4.206;2024-01-11T10:16:58;8.20;;;7.40;;
33170;SDS011;19535;50.672;4.206;2024-01-11T10:19:25;8.57;;;7.72;;
33170;SDS011;19535;50.672;4.206;2024-01-11T10:21:52;7.97;;;7.18;;
33170;SDS011;19535;50.672;4.206;2024-01-11T10:24:19;8.13;;;7.32;;
33170;SDS011;19535;50.672;4.206;2024-01-11T10:26:48;8.10;;;7.32;;
33170;SDS011;19535;50.672;4.206;2024-01-11T10:29:15;7.53;;;6.82;;
33170;SDS011;19535;50.672;4.206;2024-01-11T10:31:44;9.10;;;7.63;;
33170;SDS011;19535;50.672;4.206;2024-01-11T10:34:11;8.60;;;7.80;;
33170;SDS011;19535;50.672;4.206;2024-01-11T10:36:38;8.00;;;7.15;;
33170;SDS011;19535;50.672;4.206;2024-01-11T10:39:07;9.25;;;7.55;;
33170;SDS011;19535;50.672;4.206;2024-01-11T10:41:47;8.88;;;7.60;;
33170;SDS011;19535;50.672;4.206;2024-01-11T10:44:17;8.52;;;7.63;;
33170;SDS011;19535;50.672;4.206;2024-01-11T10:46:47;8.10;;;7.30;;
33170;SDS011;19535;50.672;4.206;2024-01-11T10:49:19;8.23;;;7.40;;
33170;SDS011;19535;50.672;4.206;2024-01-11T10:51:49;7.90;;;7.20;;
33170;SDS011;19535;50.672;4.206;2024-01-11T10:54:21;7.85;;;7.13;;
33170;SDS011;19535;50.672;4.206;2024-01-11T10:56:49;8.38;;;7.43;;
33170;SDS011;19535;50.672;4.206;2024-01-11T10:59:16;12.18;;;8.20;;
33170;SDS011;19535;50.672;4.206;2024-01-11T11:01:45;8.48;;;7.60;;
33170;SDS011;19535;50.672;4.206;2024-01-11T11:04:13;8.95;;;7.93;;
33170;SDS011;19535;50.672;4.206;2024-01-11T11:06:40;9.52;;;7.82;;
33170;SDS011;19535;50.672;4.206;2024-01-11T11:09:08;8.60;;;7.00;;
33170;SDS011;19535;50.672;4.206;2024-01-11T11:11:36;8.50;;;7.70;;
33170;SDS011;19535;50.672;4.206;2024-01-11T11:14:06;8.25;;;7.50;;
33170;SDS011;19535;50.672;4.206;2024-01-11T11:16:33;8.20;;;7.40;;
33170;SDS011;19535;50.672;4.206;2024-01-11T11:19:01;8.77;;;7.78;;
33170;SDS011;19535;50.672;4.206;2024-01-11T11:21:28;8.80;;;7.90;;
33170;SDS011;19535;50.672;4.206;2024-01-11T11:23:55;8.18;;;7.45;;
33170;SDS011;19535;50.672;4.206;2024-01-11T11:26:23;8.82;;;7.93;;
33170;SDS011;19535;50.672;4.206;2024-01-11T11:28:52;9.60;;;8.13;;
33170;SDS011;19535;50.672;4.206;2024-01-11T11:31:35;8.43;;;7.72;;
33170;SDS011;19535;50.672;4.206;2024-01-11T11:34:06;8.57;;;7.75;;
33170;SDS011;19535;50.672;4.206;2024-01-11T11:36:33;8.82;;;8.02;;
33170;SDS011;19535;50.672;4.206;2024-01-11T11:39:01;9.27;;;8.38;;
33170;SDS011;19535;50.672;4.206;2024-01-11T11:41:32;8.57;;;7.78;;
33170;SDS011;19535;50.672;4.206;2024-01-11T11:44:02;8.27;;;7.47;;
33170;SDS011;19535;50.672;4.206;2024-01-11T11:46:29;9.13;;;8.05;;
33170;SDS011;19535;50.672;4.206;2024-01-11T11:48:57;8.02;;;7.22;;
33170;SDS011;19535;50.672;4.206;2024-01-11T11:51:25;8.80;;;7.95;;
33170;SDS011;19535;50.672;4.206;2024-01-11T11:56:22;8.55;;;7.75;;
33170;SDS011;19535;50.672;4.206;2024-01-11T11:58:50;8.50;;;7.70;;
33170;SDS011;19535;50.672;4.206;2024-01-11T12:03:46;8.63;;;7.85;;
33170;SDS011;19535;50.672;4.206;2024-01-11T12:06:17;8.93;;;8.02;;
33170;SDS011;19535;50.672;4.206;2024-01-11T12:08:47;8.57;;;7.75;;
33170;SDS011;19535;50.672;4.206;2024-01-11T12:11:16;8.57;;;7.78;;
33170;SDS011;19535;50.672;4.206;2024-01-11T12:13:46;8.48;;;7.68;;
33170;SDS011;19535;50.672;4.206;2024-01-11T12:16:13;8.67;;;7.43;;
33170;SDS011;19535;50.672;4.206;2024-01-11T12:18:41;8.23;;;7.53;;
33170;SDS011;19535;50.672;4.206;2024-01-11T12:21:08;8.32;;;7.55;;
33170;SDS011;19535;50.672;4.206;2024-01-11T12:23:37;8.68;;;7.88;;
33170;SDS011;19535;50.672;4.206;2024-01-11T12:26:08;8.50;;;7.70;;
33170;SDS011;19535;50.672;4.206;2024-01-11T12:28:40;8.27;;;7.47;;
33170;SDS011;19535;50.672;4.206;2024-01-11T12:31:09;8.93;;;8.13;;
33170;SDS011;19535;50.672;4.206;2024-01-11T12:33:36;8.30;;;7.50;;
33170;SDS011;19535;50.672;4.206;2024-01-11T12:36:06;8.52;;;7.72;;
33170;SDS011;19535;50.672;4.206;2024-01-11T12:38:34;7.72;;;6.93;;
33170;SDS011;19535;50.672;4.206;2024-01-11T12:41:02;8.13;;;7.35;;
33170;SDS011;19535;50.672;4.206;2024-01-11T12:43:30;8.48;;;7.68;;
33170;SDS011;19535;50.672;4.206;2024-01-11T12:45:58;9.20;;;7.75;;
33170;SDS011;19535;50.672;4.206;2024-01-11T12:48:25;7.18;;;6.50;;
33170;SDS011;19535;50.672;4.206;2024-01-11T12:50:52;8.00;;;7.30;;
33170;SDS011;19535;50.672;4.206;2024-01-11T12:53:39;7.65;;;6.95;;
33170;SDS011;19535;50.672;4.206;2024-01-11T12:56:07;8.45;;;7.65;;
33170;SDS011;19535;50.672;4.206;2024-01-11T12:58:37;8.20;;;7.47;;
33170;SDS011;19535;50.672;4.206;2024-01-11T13:01:05;8.18;;;7.38;;
33170;SDS011;19535;50.672;4.206;2024-01-11T13:03:34;8.50;;;7.63;;
33170;SDS011;19535;50.672;4.206;2024-01-11T13:06:04;8.00;;;7.30;;
33170;SDS011;19535;50.672;4.206;2024-01-11T13:08:32;8.43;;;7.40;;
33170;SDS011;19535;50.672;4.206;2024-01-11T13:11:01;7.80;;;7.10;;
33170;SDS011;19535;50.672;4.206;2024-01-11T13:13:33;7.88;;;7.07;;
33170;SDS011;19535;50.672;4.206;2024-01-11T13:16:04;8.10;;;7.30;;
33170;SDS011;19535;50.672;4.206;2024-01-11T13:18:37;8.73;;;7.47;;
33170;SDS011;19535;50.672;4.206;2024-01-11T13:21:04;7.70;;;7.00;;
33170;SDS011;19535;50.672;4.206;2024-01-11T13:23:33;7.50;;;6.80;;
33170;SDS011;19535;50.672;4.206;2024-01-11T13:26:00;9.15;;;7.00;;
33170;SDS011;19535;50.672;4.206;2024-01-11T13:28:28;8.00;;;7.22;;
33170;SDS011;19535;50.672;4.206;2024-01-11T13:30:55;7.70;;;7.00;;
33170;SDS011;19535;50.672;4.206;2024-01-11T13:33:23;7.43;;;6.82;;
33170;SDS011;19535;50.672;4.206;2024-01-11T13:35:50;7.85;;;7.15;;
33170;SDS011;19535;50.672;4.206;2024-01-11T13:38:18;7.55;;;6.85;;
33170;SDS011;19535;50.672;4.206;2024-01-11T13:40:48;7.95;;;7.15;;
33170;SDS011;19535;50.672;4.206;2024-01-11T13:43:15;7.53;;;6.90;;
33170;SDS011;19535;50.672;4.206;2024-01-11T13:45:43;7.72;;;7.03;;
33170;SDS011;19535;50.672;4.206;2024-01-11T13:48:11;7.10;;;6.43;;
33170;SDS011;19535;50.672;4.206;2024-01-11T13:50:38;8.00;;;7.10;;
33170;SDS011;19535;50.672;4.206;2024-01-11T13:53:05;7.03;;;6.40;;
33170;SDS011;19535;50.672;4.206;2024-01-11T13:55:32;7.40;;;6.70;;
33170;SDS011;19535;50.672;4.206;2024-01-11T13:58:05;7.65;;;6.90;;
33170;SDS011;19535;50.672;4.206;2024-01-11T14:00:33;7.88;;;6.97;;
33170;SDS011;19535;50.672;4.206;2024-01-11T14:03:00;7.47;;;6.78;;
33170;SDS011;19535;50.672;4.206;2024-01-11T14:05:28;7.55;;;6.80;;
33170;SDS011;19535;50.672;4.206;2024-01-11T14:07:55;8.05;;;7.00;;
33170;SDS011;19535;50.672;4.206;2024-01-11T14:10:27;7.70;;;7.00;;
33170;SDS011;19535;50.672;4.206;2024-01-11T14:12:54;6.82;;;6.22;;
33170;SDS011;19535;50.672;4.206;2024-01-11T14:15:21;7.10;;;6.47;;
33170;SDS011;19535;50.672;4.206;2024-01-11T14:17:49;7.03;;;6.43;;
33170;SDS011;19535;50.672;4.206;2024-01-11T14:20:16;6.90;;;6.30;;
33170;SDS011;19535;50.672;4.206;2024-01-11T14:22:44;7.05;;;6.45;;
33170;SDS011;19535;50.672;4.206;2024-01-11T14:25:19;6.80;;;6.15;;
33170;SDS011;19535;50.672;4.206;2024-01-11T14:27:47;6.50;;;5.90;;
33170;SDS011;19535;50.672;4.206;2024-01-11T14:30:15;7.43;;;6.70;;
33170;SDS011;19535;50.672;4.206;2024-01-11T14:32:42;6.28;;;5.78;;
33170;SDS011;19535;50.672;4.206;2024-01-11T14:35:10;6.72;;;6.13;;
33170;SDS011;19535;50.672;4.206;2024-01-11T14:37:38;6.90;;;6.30;;
33170;SDS011;19535;50.672;4.206;2024-01-11T14:40:06;7.07;;;6.38;;
33170;SDS011;19535;50.672;4.206;2024-01-11T14:42:37;6.53;;;5.75;;
33170;SDS011;19535;50.672;4.206;2024-01-11T14:45:04;7.22;;;6.57;;
33170;SDS011;19535;50.672;4.206;2024-01-11T14:47:32;6.85;;;6.15;;
33170;SDS011;19535;50.672;4.206;2024-01-11T14:50:00;6.57;;;5.97;;
33170;SDS011;19535;50.672;4.206;2024-01-11T14:52:30;7.28;;;6.68;;
33170;SDS011;19535;50.672;4.206;2024-01-11T14:57:26;6.05;;;5.55;;
33170;SDS011;19535;50.672;4.206;2024-01-11T14:59:53;6.68;;;6.07;;
33170;SDS011;19535;50.672;4.206;2024-01-11T15:02:20;7.50;;;6.78;;